createdAt,value
2022-08-25T00:00:15.077Z,101724.91
2022-08-25T00:02:41.439Z,101723.47
2022-08-25T00:05:21.278Z,101719.31
2022-08-25T00:07:48.039Z,101714.84
2022-08-25T00:10:14.346Z,101713.13
2022-08-25T00:12:40.669Z,101716.00
2022-08-25T00:15:07.122Z,101707.22
2022-08-25T00:17:33.525Z,101709.25
2022-08-25T00:19:59.948Z,101714.84
2022-08-25T00:22:26.300Z,101717.75
2022-08-25T00:24:52.660Z,101706.94
2022-08-25T00:27:19.113Z,101704.34
2022-08-25T00:29:45.847Z,101699.03
2022-08-25T00:32:12.321Z,101696.28
2022-08-25T00:34:38.667Z,101698.31
2022-08-25T00:37:05.083Z,101706.69
2022-08-25T00:39:31.427Z,101705.78
2022-08-25T00:41:57.753Z,101704.50
2022-08-25T00:44:24.059Z,101696.72
2022-08-25T00:46:50.461Z,101692.25
2022-08-25T00:49:24.698Z,101693.28
2022-08-25T00:51:51.544Z,101696.16
2022-08-25T00:54:17.872Z,101695.28
2022-08-25T00:56:44.208Z,101697.31
2022-08-25T00:59:10.494Z,101702.81
2022-08-25T01:01:36.836Z,101705.84
2022-08-25T01:04:03.181Z,101709.72
2022-08-25T01:06:29.490Z,101706.41
2022-08-25T01:08:56.060Z,101713.91
2022-08-25T01:11:22.642Z,101714.91
2022-08-25T01:13:48.925Z,101714.50
2022-08-25T01:16:15.276Z,101708.28
2022-08-25T01:18:41.547Z,101704.84
2022-08-25T01:21:07.860Z,101709.88
2022-08-25T01:23:34.309Z,101701.97
2022-08-25T01:26:00.762Z,101709.47
2022-08-25T01:28:27.155Z,101705.72
2022-08-25T01:30:56.116Z,101707.75
2022-08-25T01:33:22.538Z,101701.25
2022-08-25T01:35:49.131Z,101703.13
2022-08-25T01:38:15.408Z,101701.41
2022-08-25T01:40:41.932Z,101710.78
2022-08-25T01:43:08.324Z,101709.03
2022-08-25T01:45:34.818Z,101700.97
2022-08-25T01:48:01.185Z,101706.59
2022-08-25T01:50:27.729Z,101706.88
2022-08-25T01:52:54.212Z,101707.19
2022-08-25T01:55:20.660Z,101705.44
2022-08-25T01:57:46.962Z,101695.63
2022-08-25T02:00:13.312Z,101693.75
2022-08-25T02:02:42.575Z,101696.94
2022-08-25T02:05:09.168Z,101690.91
2022-08-25T02:07:35.479Z,101697.38
2022-08-25T02:10:03.481Z,101705.56
2022-08-25T02:12:29.972Z,101700.09
2022-08-25T02:14:56.497Z,101705.56
2022-08-25T02:17:22.802Z,101697.38
2022-08-25T02:19:49.281Z,101699.25
2022-08-25T02:22:15.703Z,101691.31
2022-08-25T02:24:42.258Z,101683.97
2022-08-25T02:27:08.755Z,101685.97
2022-08-25T02:29:35.126Z,101684.41
2022-08-25T02:32:01.453Z,101682.09
2022-08-25T02:34:27.768Z,101679.63
2022-08-25T02:36:54.102Z,101680.94
2022-08-25T02:39:20.739Z,101680.47
2022-08-25T02:41:47.060Z,101671.66
2022-08-25T02:44:13.420Z,101670.06
2022-08-25T02:46:39.996Z,101667.63
2022-08-25T02:49:06.341Z,101667.63
2022-08-25T02:51:32.724Z,101676.13
2022-08-25T02:53:59.028Z,101672.81
2022-08-25T02:56:25.495Z,101672.81
2022-08-25T02:58:51.843Z,101672.09
2022-08-25T03:01:18.124Z,101668.50
2022-08-25T03:03:44.654Z,101671.38
2022-08-25T03:06:11.191Z,101665.16
2022-08-25T03:08:37.518Z,101672.50
2022-08-25T03:11:03.895Z,101672.66
2022-08-25T03:13:30.361Z,101668.03
2022-08-25T03:15:56.899Z,101664.47
2022-08-25T03:18:23.262Z,101662.56
2022-08-25T03:20:51.032Z,101657.84
2022-08-25T03:23:17.373Z,101669.78
2022-08-25T03:25:43.703Z,101663.47
2022-08-25T03:28:10.001Z,101666.47
2022-08-25T03:30:36.248Z,101661.88
2022-08-25T03:33:02.541Z,101665.59
2022-08-25T03:35:28.802Z,101660.13
2022-08-25T03:37:57.383Z,101656.53
2022-08-25T03:40:23.972Z,101647.44
2022-08-25T03:42:50.329Z,101652.06
2022-08-25T03:45:16.813Z,101654.81
2022-08-25T03:47:43.416Z,101648.34
2022-08-25T03:50:09.743Z,101649.34
2022-08-25T03:52:40.196Z,101663.16
2022-08-25T03:55:08.641Z,101660.56
2022-08-25T03:57:34.988Z,101654.34
2022-08-25T04:00:01.280Z,101658.25
2022-08-25T04:02:27.950Z,101660.97
2022-08-25T04:04:54.390Z,101662.97
2022-08-25T04:07:22.662Z,101663.84
2022-08-25T04:09:49.083Z,101664.84
2022-08-25T04:12:15.485Z,101660.38
2022-08-25T04:14:45.246Z,101660.53
2022-08-25T04:17:11.563Z,101667.88
2022-08-25T04:19:38.070Z,101663.53
2022-08-25T04:22:04.680Z,101666.28
2022-08-25T04:24:31.020Z,101669.00
2022-08-25T04:26:57.431Z,101671.03
2022-08-25T04:29:23.985Z,101671.88
2022-08-25T04:31:50.464Z,101672.72
2022-08-25T04:34:29.543Z,101671.03
2022-08-25T04:36:57.317Z,101670.75
2022-08-25T04:39:23.604Z,101675.31
2022-08-25T04:41:49.928Z,101677.06
2022-08-25T04:44:16.259Z,101682.38
2022-08-25T04:46:42.607Z,101682.25
2022-08-25T04:49:09.158Z,101682.09
2022-08-25T04:51:35.635Z,101683.72
2022-08-25T04:54:01.939Z,101689.88
2022-08-25T04:56:28.452Z,101685.72
2022-08-25T04:58:55.090Z,101680.81
2022-08-25T05:01:21.575Z,101680.81
2022-08-25T05:03:48.549Z,101683.84
2022-08-25T05:06:16.259Z,101683.13
2022-08-25T05:08:43.106Z,101675.66
2022-08-25T05:11:12.708Z,101680.13
2022-08-25T05:13:39.225Z,101689.03
2022-08-25T05:16:05.548Z,101689.88
2022-08-25T05:18:36.129Z,101690.63
2022-08-25T05:21:02.641Z,101682.28
2022-08-25T05:23:29.233Z,101689.63
2022-08-25T05:25:55.677Z,101701.28
2022-08-25T05:28:22.591Z,101706.47
2022-08-25T05:30:48.993Z,101706.03
2022-08-25T05:33:15.557Z,101708.22
2022-08-25T05:35:42.061Z,101716.00
2022-08-25T05:38:08.529Z,101704.78
2022-08-25T05:40:41.876Z,101705.22
2022-08-25T05:43:08.229Z,101705.09
2022-08-25T05:45:34.701Z,101701.47
2022-08-25T05:48:01.179Z,101701.22
2022-08-25T05:50:27.806Z,101708.03
2022-08-25T05:52:54.302Z,101707.28
2022-08-25T05:55:20.612Z,101707.28
2022-08-25T05:57:47.010Z,101708.03
2022-08-25T06:00:13.413Z,101707.88
2022-08-25T06:02:39.861Z,101701.09
2022-08-25T06:05:06.316Z,101706.00
2022-08-25T06:07:32.599Z,101705.56
2022-08-25T06:09:58.987Z,101702.53
2022-08-25T06:12:25.301Z,101698.06
2022-08-25T06:14:51.641Z,101702.25
2022-08-25T06:17:18.077Z,101707.88
2022-08-25T06:19:44.495Z,101703.84
2022-08-25T06:22:10.852Z,101700.38
2022-08-25T06:24:37.189Z,101700.13
2022-08-25T06:27:03.743Z,101700.97
2022-08-25T06:29:30.052Z,101700.69
2022-08-25T06:31:56.447Z,101702.25
2022-08-25T06:34:23.968Z,101702.81
2022-08-25T06:36:50.832Z,101709.19
2022-08-25T06:39:19.702Z,101703.56
2022-08-25T06:41:46.005Z,101714.38
2022-08-25T06:44:12.340Z,101718.53
2022-08-25T06:46:38.720Z,101714.50
2022-08-25T06:49:05.044Z,101715.34
2022-08-25T06:51:31.540Z,101723.28
2022-08-25T06:53:57.896Z,101711.88
2022-08-25T06:56:24.269Z,101717.09
2022-08-25T06:58:53.203Z,101714.75
2022-08-25T07:01:20.544Z,101715.91
2022-08-25T07:03:47.007Z,101716.34
2022-08-25T07:06:13.920Z,101718.50
2022-08-25T07:08:41.083Z,101716.34
2022-08-25T07:11:07.433Z,101717.91
2022-08-25T07:13:42.764Z,101715.75
2022-08-25T07:16:09.052Z,101709.69
2022-08-25T07:18:35.312Z,101710.97
2022-08-25T07:21:01.608Z,101701.28
2022-08-25T07:23:27.939Z,101702.03
2022-08-25T07:25:54.171Z,101704.34
2022-08-25T07:28:20.473Z,101696.72
2022-08-25T07:30:51.818Z,101701.03
2022-08-25T07:33:18.520Z,101698.69
2022-08-25T07:35:44.767Z,101692.75
2022-08-25T07:38:13.022Z,101692.50
2022-08-25T07:40:42.644Z,101690.88
2022-08-25T07:43:09.322Z,101690.41
2022-08-25T07:45:35.569Z,101695.28
2022-08-25T07:48:01.813Z,101693.81
2022-08-25T07:50:28.176Z,101698.44
2022-08-25T07:52:55.208Z,101696.56
2022-08-25T07:55:21.695Z,101696.81
2022-08-25T07:57:49.912Z,101692.19
2022-08-25T08:00:21.970Z,101685.69
2022-08-25T08:02:48.283Z,101690.72
2022-08-25T08:05:15.124Z,101688.25
2022-08-25T08:07:43.509Z,101687.19
2022-08-25T08:10:33.251Z,101684.72
2022-08-25T08:12:56.543Z,101678.06
2022-08-25T08:15:22.950Z,101679.19
2022-08-25T08:17:49.270Z,101678.09
2022-08-25T08:20:16.875Z,101682.03
2022-08-25T08:22:49.510Z,101678.91
2022-08-25T08:25:18.858Z,101676.63
2022-08-25T08:27:47.965Z,101677.94
2022-08-25T08:30:14.304Z,101671.50
2022-08-25T08:33:06.426Z,101671.22
2022-08-25T08:35:27.130Z,101672.56
2022-08-25T08:37:53.953Z,101666.81
2022-08-25T08:40:20.655Z,101656.72
2022-08-25T08:42:47.187Z,101656.94
2022-08-25T08:45:13.559Z,101651.63
2022-08-25T08:47:40.135Z,101645.66
2022-08-25T08:50:06.467Z,101631.25
2022-08-25T08:52:33.395Z,101640.22
2022-08-25T08:54:59.741Z,101632.69
2022-08-25T08:57:25.991Z,101633.75
2022-08-25T08:59:52.331Z,101638.22
2022-08-25T09:02:38.889Z,101630.81
2022-08-25T09:05:05.036Z,101627.28
2022-08-25T09:07:32.392Z,101632.47
2022-08-25T09:09:58.843Z,101630.44
2022-08-25T09:12:25.171Z,101622.84
2022-08-25T09:14:54.346Z,101635.06
2022-08-25T09:17:20.700Z,101633.72
2022-08-25T09:19:47.223Z,101624.41
2022-08-25T09:22:34.994Z,101614.78
2022-08-25T09:25:00.281Z,101621.66
2022-08-25T09:27:26.598Z,101611.19
2022-08-25T09:29:53.128Z,101614.97
2022-08-25T09:32:23.992Z,101604.09
2022-08-25T09:34:50.809Z,101597.22
2022-08-25T09:37:17.120Z,101602.53
2022-08-25T09:39:43.444Z,101591.50
2022-08-25T09:42:09.668Z,101589.47
2022-08-25T09:44:36.864Z,101589.13
2022-08-25T09:47:03.078Z,101594.28
2022-08-25T09:49:29.384Z,101590.69
2022-08-25T09:51:55.743Z,101591.69
2022-08-25T09:54:25.471Z,101580.91
2022-08-25T09:57:00.231Z,101583.66
2022-08-25T09:59:34.180Z,101584.88
2022-08-25T10:04:28.324Z,101577.91
2022-08-25T10:06:54.637Z,101577.88
2022-08-25T10:09:21.152Z,101575.59
2022-08-25T10:11:48.306Z,101570.53
2022-08-25T10:14:14.713Z,101575.50
2022-08-25T10:16:41.398Z,101574.00
2022-08-25T10:19:13.269Z,101569.59
2022-08-25T10:21:39.597Z,101570.44
2022-08-25T10:24:05.922Z,101560.56
2022-08-25T10:26:34.901Z,101566.03
2022-08-25T10:29:01.781Z,101561.88
2022-08-25T10:31:29.812Z,101556.81
2022-08-25T10:33:56.237Z,101564.75
2022-08-25T10:36:22.700Z,101546.84
2022-08-25T10:38:49.072Z,101558.66
2022-08-25T10:41:15.537Z,101555.75
2022-08-25T10:43:41.906Z,101554.81
2022-08-25T10:46:09.963Z,101551.31
2022-08-25T10:48:36.658Z,101549.03
2022-08-25T10:51:02.930Z,101538.75
2022-08-25T10:53:29.465Z,101540.81
2022-08-25T10:55:56.207Z,101525.84
2022-08-25T10:58:23.244Z,101514.34
2022-08-25T11:00:49.904Z,101519.50
2022-08-25T11:03:16.245Z,101515.50
2022-08-25T11:05:44.110Z,101513.03
2022-08-25T11:08:10.450Z,101508.28
2022-08-25T11:10:38.066Z,101507.63
2022-08-25T11:13:04.632Z,101500.28
2022-08-25T11:15:31.148Z,101502.47
2022-08-25T11:17:57.492Z,101500.97
2022-08-25T11:20:26.874Z,101494.97
2022-08-25T11:22:53.552Z,101497.69
2022-08-25T11:25:19.872Z,101487.56
2022-08-25T11:27:48.014Z,101481.25
2022-08-25T11:30:14.412Z,101478.44
2022-08-25T11:32:40.896Z,101476.69
2022-08-25T11:35:08.044Z,101482.56
2022-08-25T11:37:34.380Z,101480.66
2022-08-25T11:40:00.741Z,101480.00
2022-08-25T11:42:27.044Z,101472.06
2022-08-25T11:44:55.131Z,101480.81
2022-08-25T11:47:21.836Z,101471.13
2022-08-25T11:49:48.185Z,101468.75
2022-08-25T11:52:14.517Z,101470.09
2022-08-25T11:54:41.679Z,101465.22
2022-08-25T11:57:08.297Z,101465.63
2022-08-25T11:59:34.826Z,101463.72
2022-08-25T12:02:01.052Z,101461.47
2022-08-25T12:04:29.522Z,101451.28
2022-08-25T12:06:57.209Z,101443.19
2022-08-25T12:09:23.545Z,101441.91
2022-08-25T12:11:49.773Z,101429.09
2022-08-25T12:14:16.262Z,101440.13
2022-08-25T12:16:43.573Z,101431.34
2022-08-25T12:19:10.095Z,101431.00
2022-08-25T12:21:36.582Z,101428.16
2022-08-25T12:24:03.052Z,101427.03
2022-08-25T12:26:29.323Z,101421.78
2022-08-25T12:28:55.801Z,101421.97
2022-08-25T12:31:22.086Z,101416.66
2022-08-25T12:33:48.502Z,101417.47
2022-08-25T12:36:15.830Z,101415.38
2022-08-25T12:38:43.681Z,101411.53
2022-08-25T12:41:11.057Z,101405.38
2022-08-25T12:43:38.075Z,101398.78
2022-08-25T12:46:04.502Z,101402.69
2022-08-25T12:48:30.782Z,101395.75
2022-08-25T12:50:57.128Z,101383.41
2022-08-25T12:53:23.432Z,101388.63
2022-08-25T12:55:49.968Z,101386.47
2022-08-25T12:58:16.330Z,101389.03
2022-08-25T13:00:44.846Z,101388.16
2022-08-25T13:03:12.524Z,101387.34
2022-08-25T13:05:40.562Z,101388.06
2022-08-25T13:08:07.272Z,101396.31
2022-08-25T13:10:42.249Z,101385.88
2022-08-25T13:13:08.899Z,101387.66
2022-08-25T13:15:35.117Z,101391.13
2022-08-25T13:18:02.789Z,101393.09
2022-08-25T13:20:29.179Z,101386.94
2022-08-25T13:22:57.749Z,101388.66
2022-08-25T13:25:24.296Z,101386.50
2022-08-25T13:27:54.001Z,101385.00
2022-08-25T13:30:20.319Z,101381.00
2022-08-25T13:32:46.797Z,101371.94
2022-08-25T13:35:15.482Z,101370.28
2022-08-25T13:37:44.143Z,101365.97
2022-08-25T13:40:10.444Z,101369.56
2022-08-25T13:42:37.386Z,101360.81
2022-08-25T13:45:08.563Z,101360.41
2022-08-25T13:47:43.322Z,101365.75
2022-08-25T13:50:11.506Z,101354.63
2022-08-25T13:52:37.874Z,101347.75
2022-08-25T13:55:04.586Z,101350.84
2022-08-25T13:57:31.145Z,101351.75
2022-08-25T13:59:57.522Z,101344.06
2022-08-25T14:02:25.717Z,101344.78
2022-08-25T14:04:55.093Z,101336.06
2022-08-25T14:07:21.689Z,101340.97
2022-08-25T14:09:48.005Z,101340.13
2022-08-25T14:12:14.381Z,101347.91
2022-08-25T14:14:40.720Z,101340.19
2022-08-25T14:17:21.963Z,101346.91
2022-08-25T14:19:54.452Z,101339.69
2022-08-25T14:22:20.982Z,101328.09
2022-08-25T14:24:47.309Z,101320.34
2022-08-25T14:27:13.748Z,101315.94
2022-08-25T14:29:41.167Z,101317.16
2022-08-25T14:32:07.675Z,101309.63
2022-08-25T14:34:36.376Z,101306.28
2022-08-25T14:37:02.675Z,101303.06
2022-08-25T14:39:30.156Z,101304.28
2022-08-25T14:41:56.647Z,101299.75
2022-08-25T14:44:23.569Z,101299.22
2022-08-25T14:46:53.584Z,101299.16
2022-08-25T14:49:25.000Z,101297.63
2022-08-25T14:51:51.407Z,101293.97
2022-08-25T14:54:17.717Z,101292.00
2022-08-25T14:56:45.474Z,101295.34
2022-08-25T14:59:11.845Z,101288.03
2022-08-25T15:01:38.119Z,101284.50
2022-08-25T15:04:04.471Z,101282.66
2022-08-25T15:06:30.786Z,101279.72
2022-08-25T15:08:57.280Z,101267.59
2022-08-25T15:11:23.628Z,101273.88
2022-08-25T15:13:50.018Z,101272.13
2022-08-25T15:16:16.347Z,101262.53
2022-08-25T15:18:47.106Z,101257.97
2022-08-25T15:21:13.420Z,101258.06
2022-08-25T15:23:41.309Z,101259.75
2022-08-25T15:26:10.981Z,101271.09
2022-08-25T15:28:37.374Z,101260.16
2022-08-25T15:31:04.903Z,101264.97
2022-08-25T15:33:34.599Z,101260.47
2022-08-25T15:36:00.924Z,101259.00
2022-08-25T15:38:28.959Z,101257.06
2022-08-25T15:40:55.437Z,101239.97
2022-08-25T15:43:21.749Z,101248.25
2022-08-25T15:45:48.913Z,101254.16
2022-08-25T15:48:17.349Z,101243.63
2022-08-25T15:50:43.638Z,101242.06
2022-08-25T15:53:10.622Z,101246.56
2022-08-25T15:55:37.137Z,101239.03
2022-08-25T15:58:04.275Z,101236.56
2022-08-25T16:00:31.794Z,101232.38
2022-08-25T16:02:58.458Z,101231.78
2022-08-25T16:05:26.145Z,101226.44
2022-08-25T16:07:53.495Z,101232.16
2022-08-25T16:10:19.829Z,101223.78
2022-08-25T16:12:46.721Z,101216.41
2022-08-25T16:15:13.405Z,101222.84
2022-08-25T16:17:40.769Z,101210.66
2022-08-25T16:20:13.879Z,101209.56
2022-08-25T16:22:40.451Z,101205.25
2022-08-25T16:25:06.719Z,101206.06
2022-08-25T16:27:38.914Z,101197.50
2022-08-25T16:30:05.709Z,101206.75
2022-08-25T16:32:32.220Z,101201.06
2022-08-25T16:34:58.576Z,101199.69
2022-08-25T16:37:25.057Z,101201.94
2022-08-25T16:39:52.606Z,101191.13
2022-08-25T16:42:19.691Z,101195.06
2022-08-25T16:44:46.261Z,101189.34
2022-08-25T16:47:14.099Z,101191.69
2022-08-25T16:49:40.588Z,101192.13
2022-08-25T16:52:06.932Z,101188.28
2022-08-25T16:54:33.983Z,101196.19
2022-08-25T16:57:00.333Z,101197.03
2022-08-25T16:59:26.596Z,101197.25
2022-08-25T17:01:53.153Z,101190.22
2022-08-25T17:04:19.573Z,101190.03
2022-08-25T17:06:51.957Z,101187.47
2022-08-25T17:09:24.133Z,101191.34
2022-08-25T17:11:50.849Z,101189.00
2022-08-25T17:14:17.889Z,101191.81
2022-08-25T17:16:44.277Z,101190.72
2022-08-25T17:19:11.721Z,101197.38
2022-08-25T17:21:38.280Z,101198.66
2022-08-25T17:24:04.812Z,101196.75
2022-08-25T17:26:31.444Z,101194.44
2022-08-25T17:28:59.729Z,101193.75
2022-08-25T17:31:26.321Z,101194.00
2022-08-25T17:33:54.642Z,101196.09
2022-08-25T17:36:21.009Z,101195.44
2022-08-25T17:38:54.291Z,101196.91
2022-08-25T17:41:28.300Z,101194.97
2022-08-25T17:43:55.518Z,101186.00
2022-08-25T17:46:21.988Z,101192.53
2022-08-25T17:48:48.801Z,101198.25
2022-08-25T17:51:16.323Z,101194.16
2022-08-25T17:53:43.833Z,101197.94
2022-08-25T17:56:10.670Z,101195.56
2022-08-25T17:58:37.697Z,101192.13
2022-08-25T18:01:05.025Z,101199.53
2022-08-25T18:03:31.287Z,101195.66
2022-08-25T18:05:57.607Z,101201.09
2022-08-25T18:08:32.019Z,101202.97
2022-08-25T18:11:01.901Z,101195.69
2022-08-25T18:13:28.398Z,101197.56
2022-08-25T18:15:54.791Z,101212.41
2022-08-25T18:18:21.030Z,101211.50
2022-08-25T18:20:50.630Z,101210.59
2022-08-25T18:23:16.969Z,101206.94
2022-08-25T18:25:43.496Z,101211.34
2022-08-25T18:28:09.827Z,101207.66
2022-08-25T18:30:36.414Z,101211.16
2022-08-25T18:33:02.714Z,101209.22
2022-08-25T18:35:29.038Z,101218.09
2022-08-25T18:37:55.372Z,101216.97
2022-08-25T18:40:21.924Z,101211.84
2022-08-25T18:42:48.340Z,101216.91
2022-08-25T18:45:14.823Z,101223.03
2022-08-25T18:47:41.085Z,101225.69
2022-08-25T18:50:07.433Z,101220.78
2022-08-25T18:52:33.969Z,101223.28
2022-08-25T18:55:00.731Z,101221.94
2022-08-25T18:57:27.710Z,101228.72
2022-08-25T18:59:55.293Z,101232.91
2022-08-25T19:02:21.689Z,101229.00
2022-08-25T19:04:48.019Z,101227.69
2022-08-25T19:07:14.245Z,101227.59
2022-08-25T19:09:40.485Z,101221.97
2022-08-25T19:12:06.765Z,101222.38
2022-08-25T19:14:38.145Z,101236.06
2022-08-25T19:17:04.439Z,101223.69
2022-08-25T19:19:31.791Z,101227.88
2022-08-25T19:21:59.212Z,101230.38
2022-08-25T19:24:25.749Z,101225.44
2022-08-25T19:26:54.661Z,101224.94
2022-08-25T19:29:21.194Z,101220.00
2022-08-25T19:31:48.146Z,101225.22
2022-08-25T19:34:14.590Z,101224.97
2022-08-25T19:36:42.090Z,101228.25
2022-08-25T19:39:08.680Z,101230.38
2022-08-25T19:41:35.462Z,101225.88
2022-08-25T19:44:01.861Z,101224.75
2022-08-25T19:46:33.108Z,101227.88
2022-08-25T19:49:06.851Z,101230.34
2022-08-25T19:51:33.871Z,101236.19
2022-08-25T19:54:01.746Z,101239.53
2022-08-25T19:56:29.214Z,101235.41
2022-08-25T19:58:55.592Z,101238.09
2022-08-25T20:01:22.045Z,101237.78
2022-08-25T20:03:48.360Z,101230.72
2022-08-25T20:06:15.818Z,101233.22
2022-08-25T20:08:42.419Z,101237.19
2022-08-25T20:11:08.674Z,101233.28
2022-08-25T20:13:34.922Z,101237.25
2022-08-25T20:16:01.428Z,101232.09
2022-08-25T20:18:27.784Z,101234.53
2022-08-25T20:20:54.325Z,101242.16
2022-08-25T20:23:23.344Z,101236.13
2022-08-25T20:25:50.414Z,101237.38
2022-08-25T20:28:18.615Z,101231.75
2022-08-25T20:30:45.510Z,101234.69
2022-08-25T20:33:11.793Z,101243.50
2022-08-25T20:35:38.180Z,101239.22
2022-08-25T20:38:05.266Z,101234.22
2022-08-25T20:40:31.744Z,101234.75
2022-08-25T20:42:58.002Z,101227.75
2022-08-25T20:45:24.277Z,101232.56
2022-08-25T20:47:50.522Z,101235.66
2022-08-25T20:50:17.321Z,101229.00
2022-08-25T20:52:44.070Z,101228.50
2022-08-25T20:55:11.023Z,101233.31
2022-08-25T20:57:37.748Z,101225.44
2022-08-25T21:00:04.657Z,101228.38
2022-08-25T21:02:30.982Z,101227.00
2022-08-25T21:04:57.646Z,101222.91
2022-08-25T21:07:23.956Z,101225.00
2022-08-25T21:09:50.499Z,101227.06
2022-08-25T21:12:17.751Z,101228.28
2022-08-25T21:14:44.014Z,101227.97
2022-08-25T21:17:10.388Z,101227.47
2022-08-25T21:19:38.554Z,101223.38
2022-08-25T21:22:06.354Z,101218.38
2022-08-25T21:24:32.685Z,101222.19
2022-08-25T21:26:58.910Z,101217.88
2022-08-25T21:29:28.576Z,101222.69
2022-08-25T21:31:55.022Z,101221.19
2022-08-25T21:34:21.369Z,101225.13
2022-08-25T21:36:48.645Z,101222.22
2022-08-25T21:39:14.941Z,101220.84
2022-08-25T21:41:41.209Z,101223.28
2022-08-25T21:44:07.706Z,101224.31
2022-08-25T21:46:34.000Z,101218.97
2022-08-25T21:49:00.363Z,101214.69
2022-08-25T21:51:32.314Z,101215.03
2022-08-25T21:53:58.671Z,101216.25
2022-08-25T21:56:26.330Z,101218.16
2022-08-25T21:58:52.659Z,101215.59
2022-08-25T22:01:19.195Z,101212.13
2022-08-25T22:03:47.186Z,101207.16
2022-08-25T22:06:13.680Z,101211.81
2022-08-25T22:08:42.530Z,101213.03
2022-08-25T22:11:12.224Z,101213.38
2022-08-25T22:13:38.457Z,101207.19
2022-08-25T22:16:07.560Z,101201.88
2022-08-25T22:18:34.497Z,101208.91
2022-08-25T22:21:00.757Z,101200.00
2022-08-25T22:23:33.569Z,101202.03
2022-08-25T22:26:10.561Z,101196.72
2022-08-25T22:28:36.766Z,101195.88
2022-08-25T22:31:04.178Z,101188.00
2022-08-25T22:33:30.431Z,101188.16
2022-08-25T22:35:59.756Z,101192.97
2022-08-25T22:38:26.310Z,101185.91
2022-08-25T22:40:52.543Z,101185.25
2022-08-25T22:43:18.758Z,101182.50
2022-08-25T22:45:45.123Z,101188.34
2022-08-25T22:48:11.377Z,101184.91
2022-08-25T22:50:37.609Z,101187.66
2022-08-25T22:53:03.912Z,101182.31
2022-08-25T22:55:30.396Z,101181.47
2022-08-25T22:57:56.655Z,101183.56
2022-08-25T23:00:23.143Z,101178.91
2022-08-25T23:02:51.377Z,101172.88
2022-08-25T23:05:17.652Z,101172.41
2022-08-25T23:07:43.911Z,101171.88
2022-08-25T23:10:10.139Z,101178.41
2022-08-25T23:12:36.373Z,101176.69
2022-08-25T23:15:03.259Z,101178.59
2022-08-25T23:17:29.514Z,101174.31
2022-08-25T23:19:56.152Z,101170.69
2022-08-25T23:22:22.368Z,101166.59
2022-08-25T23:24:49.834Z,101173.25
2022-08-25T23:27:16.228Z,101160.72
2022-08-25T23:29:42.909Z,101158.13
2022-08-25T23:32:09.230Z,101159.16
2022-08-25T23:34:40.261Z,101156.75
2022-08-25T23:37:06.484Z,101156.09
2022-08-25T23:39:32.737Z,101159.88
2022-08-25T23:41:59.012Z,101150.78
2022-08-25T23:44:26.144Z,101149.56
2022-08-25T23:46:52.390Z,101153.53
2022-08-25T23:49:19.014Z,101146.47
2022-08-25T23:51:45.306Z,101147.31
2022-08-25T23:54:11.805Z,101143.91
2022-08-25T23:56:38.089Z,101143.06
2022-08-25T23:59:10.681Z,101131.38
